createdAt,value
2017-12-05T00:00:38.453Z,22.03
2017-12-05T00:03:05.917Z,21.87
2017-12-05T00:05:33.397Z,20.70
2017-12-05T00:08:00.864Z,22.80
2017-12-05T00:10:28.344Z,19.43
2017-12-05T00:12:55.808Z,20.97
2017-12-05T00:15:23.309Z,21.83
2017-12-05T00:17:50.772Z,23.93
2017-12-05T00:20:18.253Z,22.67
2017-12-05T00:22:45.717Z,21.73
2017-12-05T00:25:13.219Z,22.83
2017-12-05T00:27:40.685Z,21.40
2017-12-05T00:30:08.173Z,21.03
2017-12-05T00:32:35.636Z,19.47
2017-12-05T00:35:03.120Z,22.00
2017-12-05T00:37:30.589Z,25.13
2017-12-05T00:39:58.109Z,24.03
2017-12-05T00:42:25.569Z,25.20
2017-12-05T00:44:53.035Z,24.30
2017-12-05T00:47:20.515Z,24.20
2017-12-05T00:49:47.976Z,23.37
2017-12-05T00:52:15.461Z,24.63
2017-12-05T00:54:42.924Z,24.63
2017-12-05T00:57:10.401Z,22.03
2017-12-05T00:59:37.872Z,21.67
2017-12-05T01:02:05.348Z,21.50
2017-12-05T01:04:32.813Z,22.00
2017-12-05T01:07:00.300Z,20.77
2017-12-05T01:09:27.767Z,22.77
2017-12-05T01:11:55.252Z,22.00
2017-12-05T01:14:22.717Z,21.17
2017-12-05T01:16:50.217Z,20.87
2017-12-05T01:19:17.676Z,21.60
2017-12-05T01:21:45.140Z,22.53
2017-12-05T01:24:12.623Z,23.43
2017-12-05T01:26:40.093Z,20.90
2017-12-05T01:29:07.557Z,21.17
2017-12-05T01:31:35.040Z,21.60
2017-12-05T01:34:02.509Z,20.43
2017-12-05T01:36:29.972Z,21.23
2017-12-05T01:38:57.453Z,21.57
2017-12-05T01:41:24.916Z,20.90
2017-12-05T01:43:52.398Z,21.20
2017-12-05T01:46:19.885Z,21.97
2017-12-05T01:48:47.373Z,20.53
2017-12-05T01:51:14.837Z,19.73
2017-12-05T01:53:42.364Z,21.47
2017-12-05T01:56:09.832Z,21.33
2017-12-05T01:58:37.312Z,22.10
2017-12-05T02:01:04.786Z,21.83
2017-12-05T02:03:32.286Z,20.20
2017-12-05T02:05:59.766Z,20.70
2017-12-05T02:08:27.257Z,21.57
2017-12-05T02:10:54.727Z,21.60
2017-12-05T02:13:22.205Z,22.80
2017-12-05T02:15:49.670Z,21.77
2017-12-05T02:18:17.153Z,22.93
2017-12-05T02:20:44.617Z,24.10
2017-12-05T02:23:12.106Z,21.97
2017-12-05T02:25:39.577Z,23.73
2017-12-05T02:28:07.063Z,24.53
2017-12-05T02:30:34.525Z,22.60
2017-12-05T02:33:02.021Z,22.30
2017-12-05T02:35:29.488Z,22.43
2017-12-05T02:37:56.970Z,22.53
2017-12-05T02:40:36.257Z,22.53
2017-12-05T02:43:03.736Z,22.40
2017-12-05T02:45:31.242Z,23.10
2017-12-05T02:47:58.873Z,23.33
2017-12-05T02:50:26.336Z,22.77
2017-12-05T02:52:53.797Z,24.53
2017-12-05T02:55:21.282Z,24.43
2017-12-05T02:57:48.749Z,23.20
2017-12-05T03:00:16.209Z,21.83
2017-12-05T03:02:43.688Z,23.93
2017-12-05T03:05:11.149Z,23.93
2017-12-05T03:07:38.613Z,23.77
2017-12-05T03:10:06.120Z,22.00
2017-12-05T03:12:33.584Z,23.10
2017-12-05T03:15:01.078Z,23.33
2017-12-05T03:17:28.595Z,23.13
2017-12-05T03:19:56.072Z,22.40
2017-12-05T03:22:23.673Z,22.63
2017-12-05T03:24:51.157Z,21.53
2017-12-05T03:27:18.621Z,23.27
2017-12-05T03:29:46.089Z,22.43
2017-12-05T03:32:13.577Z,23.50
2017-12-05T03:34:41.104Z,23.83
2017-12-05T03:37:08.572Z,22.47
2017-12-05T03:39:36.052Z,21.47
2017-12-05T03:42:03.517Z,23.37
2017-12-05T03:44:30.982Z,23.13
2017-12-05T03:46:58.464Z,20.43
2017-12-05T03:49:25.937Z,22.33
2017-12-05T03:51:53.409Z,22.33
2017-12-05T03:54:20.890Z,20.83
2017-12-05T03:56:48.353Z,19.33
2017-12-05T03:59:15.832Z,20.47
2017-12-05T04:01:43.301Z,21.20
2017-12-05T04:04:10.785Z,20.73
2017-12-05T04:06:38.252Z,19.33
2017-12-05T04:09:05.741Z,20.90
2017-12-05T04:11:33.205Z,20.37
2017-12-05T04:14:00.664Z,20.17
2017-12-05T04:16:28.144Z,21.30
2017-12-05T04:18:55.603Z,19.93
2017-12-05T04:21:23.065Z,18.83
2017-12-05T04:23:50.545Z,18.67
2017-12-05T04:26:18.049Z,19.47
2017-12-05T04:28:45.517Z,19.70
2017-12-05T04:31:13.004Z,18.90
2017-12-05T04:33:40.472Z,18.73
2017-12-05T04:36:07.933Z,19.63
2017-12-05T04:38:35.417Z,18.17
2017-12-05T04:41:02.889Z,18.23
2017-12-05T04:43:30.356Z,19.93
2017-12-05T04:45:57.845Z,19.47
2017-12-05T04:48:25.317Z,18.80
2017-12-05T04:50:52.788Z,18.73
2017-12-05T04:53:20.273Z,19.77
2017-12-05T04:55:47.742Z,18.87
2017-12-05T04:58:15.224Z,18.00
2017-12-05T05:00:42.722Z,19.00
2017-12-05T05:03:10.201Z,17.47
2017-12-05T05:05:37.672Z,17.27
2017-12-05T05:08:05.152Z,18.37
2017-12-05T05:10:32.650Z,18.60
2017-12-05T05:13:00.129Z,17.70
2017-12-05T05:15:27.593Z,17.07
2017-12-05T05:17:55.069Z,17.20
2017-12-05T05:20:22.552Z,17.97
2017-12-05T05:22:50.025Z,17.70
2017-12-05T05:25:17.505Z,17.57
2017-12-05T05:27:44.969Z,17.70
2017-12-05T05:30:12.448Z,17.83
2017-12-05T05:32:39.917Z,16.63
2017-12-05T05:35:07.405Z,17.83
2017-12-05T05:37:34.868Z,16.63
2017-12-05T05:40:02.351Z,17.07
2017-12-05T05:42:29.901Z,17.70
2017-12-05T05:44:57.380Z,18.13
2017-12-05T05:47:24.858Z,16.97
2017-12-05T05:49:52.374Z,17.77
2017-12-05T05:52:19.845Z,17.03
2017-12-05T05:54:47.324Z,16.63
2017-12-05T05:57:14.805Z,15.77
2017-12-05T05:59:42.269Z,16.87
2017-12-05T06:02:09.749Z,17.03
2017-12-05T06:04:37.212Z,16.03
2017-12-05T06:07:04.676Z,16.17
2017-12-05T06:09:32.157Z,16.97
2017-12-05T06:11:59.628Z,16.93
2017-12-05T06:14:27.109Z,16.37
2017-12-05T06:16:54.572Z,17.27
2017-12-05T06:19:22.052Z,16.40
2017-12-05T06:21:49.522Z,16.83
2017-12-05T06:24:17.017Z,16.50
2017-12-05T06:26:44.481Z,17.03
2017-12-05T06:29:11.945Z,16.33
2017-12-05T06:31:39.426Z,15.47
2017-12-05T06:34:06.930Z,16.03
2017-12-05T06:36:34.417Z,14.63
2017-12-05T06:39:01.898Z,16.10
2017-12-05T06:41:29.360Z,16.57
2017-12-05T06:43:56.837Z,15.53
2017-12-05T06:46:24.336Z,14.67
2017-12-05T06:48:51.796Z,15.63
2017-12-05T06:51:19.257Z,14.77
2017-12-05T06:53:46.736Z,14.63
2017-12-05T06:56:14.202Z,15.73
2017-12-05T06:58:41.688Z,15.00
2017-12-05T07:01:09.153Z,15.07
2017-12-05T07:03:36.648Z,15.90
2017-12-05T07:06:04.165Z,15.00
2017-12-05T07:08:31.621Z,14.07
2017-12-05T07:10:59.087Z,13.93
2017-12-05T07:13:26.572Z,14.13
2017-12-05T07:15:54.094Z,13.13
2017-12-05T07:18:21.694Z,14.00
2017-12-05T07:20:49.180Z,14.50
2017-12-05T07:23:16.652Z,14.90
2017-12-05T07:25:44.116Z,14.40
2017-12-05T07:28:11.625Z,14.50
2017-12-05T07:30:39.085Z,13.90
2017-12-05T07:33:06.572Z,14.50
2017-12-05T07:35:34.047Z,13.60
2017-12-05T07:38:01.549Z,15.20
2017-12-05T07:40:29.022Z,14.37
2017-12-05T07:42:56.500Z,15.03
2017-12-05T07:45:23.970Z,13.97
2017-12-05T07:47:51.552Z,14.07
2017-12-05T07:50:19.018Z,15.40
2017-12-05T07:52:46.505Z,14.20
2017-12-05T07:55:13.969Z,15.53
2017-12-05T07:57:41.461Z,13.57
2017-12-05T08:00:08.941Z,13.93
2017-12-05T08:02:36.425Z,13.70
2017-12-05T08:05:03.889Z,14.37
2017-12-05T08:07:31.365Z,14.37
2017-12-05T08:09:58.845Z,13.30
2017-12-05T08:12:26.328Z,14.23
2017-12-05T08:14:53.810Z,13.37
2017-12-05T08:17:21.284Z,13.40
2017-12-05T08:19:48.775Z,13.40
2017-12-05T08:22:16.244Z,13.10
2017-12-05T08:24:43.729Z,13.83
2017-12-05T08:27:11.205Z,13.43
2017-12-05T08:29:38.685Z,13.43
2017-12-05T08:32:06.149Z,13.87
2017-12-05T08:34:33.613Z,14.53
2017-12-05T08:37:01.167Z,13.07
2017-12-05T08:39:28.601Z,12.87
2017-12-05T08:41:56.065Z,12.77
2017-12-05T08:44:23.561Z,13.27
2017-12-05T08:46:51.029Z,12.97
2017-12-05T08:49:18.488Z,12.10
2017-12-05T08:51:45.968Z,12.17
2017-12-05T08:54:13.436Z,11.93
2017-12-05T08:56:40.907Z,11.20
2017-12-05T08:59:08.538Z,12.50
2017-12-05T09:01:36.006Z,12.17
2017-12-05T09:04:03.488Z,12.43
2017-12-05T09:06:30.962Z,11.73
2017-12-05T09:08:58.424Z,11.87
2017-12-05T09:11:25.910Z,12.33
2017-12-05T09:13:53.373Z,12.97
2017-12-05T09:16:20.856Z,12.80
2017-12-05T09:18:48.328Z,11.50
2017-12-05T09:21:15.854Z,12.43
2017-12-05T09:23:43.324Z,11.27
2017-12-05T09:26:10.796Z,11.10
2017-12-05T09:28:38.260Z,11.77
2017-12-05T09:31:05.753Z,11.83
2017-12-05T09:33:33.219Z,11.10
2017-12-05T09:36:00.684Z,11.33
2017-12-05T09:38:28.174Z,11.67
2017-12-05T09:40:55.640Z,11.50
2017-12-05T09:43:23.165Z,11.27
2017-12-05T09:45:50.671Z,11.60
2017-12-05T09:48:18.145Z,10.73
2017-12-05T09:50:45.609Z,11.27
2017-12-05T09:53:13.197Z,11.37
2017-12-05T09:55:40.677Z,11.97
2017-12-05T09:58:08.150Z,11.00
2017-12-05T10:00:35.645Z,10.53
2017-12-05T10:03:03.113Z,10.40
2017-12-05T10:05:30.596Z,11.00
2017-12-05T10:07:58.065Z,10.83
2017-12-05T10:10:25.611Z,10.23
2017-12-05T10:12:53.077Z,11.17
2017-12-05T10:15:20.541Z,11.00
2017-12-05T10:17:48.026Z,10.67
2017-12-05T10:20:15.497Z,10.77
2017-12-05T10:22:42.961Z,10.53
2017-12-05T10:25:10.454Z,11.07
2017-12-05T10:27:37.920Z,11.40
2017-12-05T10:30:05.560Z,12.87
2017-12-05T10:32:33.136Z,12.17
2017-12-05T10:35:00.604Z,11.77
2017-12-05T10:37:28.087Z,11.40
2017-12-05T10:39:55.591Z,11.47
2017-12-05T10:42:23.069Z,12.37
2017-12-05T10:44:50.596Z,12.57
2017-12-05T10:47:18.084Z,11.30
2017-12-05T10:49:45.565Z,11.40
2017-12-05T10:52:13.029Z,10.43
2017-12-05T10:54:40.508Z,11.73
2017-12-05T10:57:07.977Z,10.57
2017-12-05T10:59:36.059Z,11.03
2017-12-05T11:02:03.520Z,10.77
2017-12-05T11:04:30.998Z,9.63
2017-12-05T11:06:58.465Z,10.33
2017-12-05T11:09:25.953Z,11.10
2017-12-05T11:11:53.412Z,10.20
2017-12-05T11:14:20.876Z,10.60
2017-12-05T11:16:48.353Z,9.87
2017-12-05T11:19:15.815Z,10.50
2017-12-05T11:21:43.281Z,9.90
2017-12-05T11:24:10.761Z,9.80
2017-12-05T11:26:38.320Z,10.43
2017-12-05T11:29:05.788Z,10.67
2017-12-05T11:31:33.273Z,10.60
2017-12-05T11:34:00.740Z,10.40
2017-12-05T11:36:28.223Z,10.33
2017-12-05T11:38:55.693Z,10.60
2017-12-05T11:41:23.177Z,10.23
2017-12-05T11:43:50.649Z,9.27
2017-12-05T11:46:18.116Z,10.07
2017-12-05T11:48:45.593Z,9.33
2017-12-05T11:51:13.128Z,9.43
2017-12-05T11:53:40.588Z,9.03
2017-12-05T11:56:08.077Z,9.57
2017-12-05T11:58:35.566Z,9.90
2017-12-05T12:01:03.032Z,9.83
2017-12-05T12:03:30.517Z,9.07
2017-12-05T12:05:57.979Z,10.07
2017-12-05T12:08:25.502Z,9.83
2017-12-05T12:10:52.981Z,9.27
2017-12-05T12:13:20.449Z,12.87
2017-12-05T12:15:47.936Z,10.67
2017-12-05T12:18:15.393Z,9.00
2017-12-05T12:20:42.885Z,8.67
2017-12-05T12:23:10.348Z,9.67
2017-12-05T12:25:37.841Z,10.33
2017-12-05T12:28:05.844Z,10.03
2017-12-05T12:30:33.489Z,8.73
2017-12-05T12:33:00.949Z,9.90
2017-12-05T12:35:28.414Z,10.40
2017-12-05T12:37:55.889Z,10.00
2017-12-05T12:40:23.356Z,10.63
2017-12-05T12:42:50.821Z,10.00
2017-12-05T12:45:18.310Z,9.70
2017-12-05T12:47:45.774Z,10.17
2017-12-05T12:50:13.246Z,10.30
2017-12-05T12:52:41.719Z,10.20
2017-12-05T12:55:09.201Z,10.30
2017-12-05T12:57:36.657Z,9.90
2017-12-05T13:00:04.188Z,10.60
2017-12-05T13:02:31.663Z,10.60
2017-12-05T13:04:59.153Z,9.27
2017-12-05T13:07:26.626Z,9.67
2017-12-05T13:09:54.109Z,9.20
2017-12-05T13:12:21.574Z,9.50
2017-12-05T13:14:49.034Z,8.83
2017-12-05T13:17:16.760Z,10.00
2017-12-05T13:19:44.331Z,9.50
2017-12-05T13:22:11.789Z,9.07
2017-12-05T13:24:39.270Z,10.00
2017-12-05T13:27:06.729Z,9.70
2017-12-05T13:29:34.198Z,9.73
2017-12-05T13:32:01.704Z,10.30
2017-12-05T13:34:29.166Z,9.40
2017-12-05T13:36:56.653Z,10.80
2017-12-05T13:39:24.126Z,10.03
2017-12-05T13:41:51.642Z,10.53
2017-12-05T13:44:19.109Z,10.90
2017-12-05T13:46:46.598Z,9.97
2017-12-05T13:49:14.077Z,10.37
2017-12-05T13:51:41.566Z,10.53
2017-12-05T13:54:09.028Z,9.93
2017-12-05T13:56:36.509Z,10.47
2017-12-05T13:59:04.185Z,10.90
2017-12-05T14:01:31.669Z,11.70
2017-12-05T14:03:59.138Z,10.43
2017-12-05T14:06:26.608Z,10.37
2017-12-05T14:08:54.100Z,11.33
2017-12-05T14:11:21.634Z,10.63
2017-12-05T14:13:49.076Z,11.40
2017-12-05T14:16:16.545Z,10.30
2017-12-05T14:18:44.053Z,10.63
2017-12-05T14:21:11.520Z,10.67
2017-12-05T14:23:39.005Z,9.93
2017-12-05T14:26:06.489Z,10.00
2017-12-05T14:28:34.046Z,13.47
2017-12-05T14:31:01.525Z,9.60
2017-12-05T14:33:29.021Z,10.37
2017-12-05T14:35:56.490Z,10.70
2017-12-05T14:38:23.957Z,10.93
2017-12-05T14:40:51.449Z,10.63
2017-12-05T14:43:18.908Z,9.80
2017-12-05T14:45:46.481Z,10.73
2017-12-05T14:48:13.960Z,11.33
2017-12-05T14:50:41.468Z,10.40
2017-12-05T14:53:08.942Z,10.30
2017-12-05T14:55:36.425Z,10.83
2017-12-05T14:58:03.897Z,11.00
2017-12-05T15:00:31.367Z,10.43
2017-12-05T15:02:58.850Z,10.13
2017-12-05T15:05:26.321Z,11.13
2017-12-05T15:07:53.804Z,11.27
2017-12-05T15:10:21.266Z,11.30
2017-12-05T15:12:48.752Z,11.20
2017-12-05T15:15:16.220Z,11.37
2017-12-05T15:17:43.685Z,10.87
2017-12-05T15:20:11.184Z,11.80
2017-12-05T15:22:38.655Z,11.00
2017-12-05T15:25:06.120Z,10.63
2017-12-05T15:27:33.604Z,11.53
2017-12-05T15:30:01.086Z,10.77
2017-12-05T15:32:28.588Z,10.57
2017-12-05T15:34:56.118Z,11.57
2017-12-05T15:37:24.445Z,11.50
2017-12-05T15:39:51.912Z,10.53
2017-12-05T15:42:19.485Z,11.40
2017-12-05T15:44:46.952Z,10.93
2017-12-05T15:47:14.433Z,9.97
2017-12-05T15:49:41.896Z,11.17
2017-12-05T15:52:09.376Z,10.83
2017-12-05T15:54:36.842Z,11.50
2017-12-05T15:57:04.350Z,10.60
2017-12-05T15:59:31.829Z,10.80
2017-12-05T16:01:59.309Z,11.10
2017-12-05T16:04:26.773Z,11.10
2017-12-05T16:06:54.945Z,10.37
2017-12-05T16:09:22.414Z,11.33
2017-12-05T16:11:49.885Z,10.83
2017-12-05T16:14:17.365Z,11.03
2017-12-05T16:16:44.846Z,10.70
2017-12-05T16:19:12.312Z,11.27
2017-12-05T16:21:39.792Z,10.93
2017-12-05T16:24:07.277Z,10.90
2017-12-05T16:26:34.825Z,11.37
2017-12-05T16:29:02.289Z,11.33
2017-12-05T16:31:29.876Z,11.50
2017-12-05T16:33:57.341Z,11.10
2017-12-05T16:36:24.820Z,11.63
2017-12-05T16:38:52.284Z,12.10
2017-12-05T16:41:19.748Z,11.67
2017-12-05T16:43:47.376Z,11.17
2017-12-05T16:46:14.989Z,12.10
2017-12-05T16:48:42.457Z,10.77
2017-12-05T16:51:09.933Z,8.90
2017-12-05T16:53:37.396Z,10.20
2017-12-05T16:56:04.877Z,10.80
2017-12-05T16:58:32.349Z,10.60
2017-12-05T17:00:59.866Z,10.23
2017-12-05T17:03:27.329Z,10.77
2017-12-05T17:05:54.809Z,10.83
2017-12-05T17:08:22.272Z,10.83
2017-12-05T17:10:49.761Z,10.90
2017-12-05T17:13:17.229Z,11.80
2017-12-05T17:15:44.697Z,12.00
2017-12-05T17:18:12.185Z,12.10
2017-12-05T17:20:39.649Z,11.73
2017-12-05T17:23:07.138Z,12.43
2017-12-05T17:25:34.629Z,11.77
2017-12-05T17:28:02.093Z,12.37
2017-12-05T17:30:29.945Z,13.13
2017-12-05T17:32:57.425Z,12.57
2017-12-05T17:35:25.059Z,13.30
2017-12-05T17:37:52.533Z,13.20
2017-12-05T17:40:20.022Z,12.97
2017-12-05T17:42:47.493Z,13.47
2017-12-05T17:45:14.981Z,13.50
2017-12-05T17:47:42.447Z,14.80
2017-12-05T17:50:09.933Z,14.77
2017-12-05T17:52:37.402Z,15.33
2017-12-05T17:55:05.020Z,14.83
2017-12-05T17:57:32.453Z,18.57
2017-12-05T17:59:59.933Z,17.20
2017-12-05T18:02:27.405Z,13.77
2017-12-05T18:04:54.891Z,14.27
2017-12-05T18:07:22.584Z,14.73
2017-12-05T18:09:50.065Z,13.20
2017-12-05T18:12:17.617Z,14.00
2017-12-05T18:14:45.113Z,14.77
2017-12-05T18:17:12.589Z,13.20
2017-12-05T18:19:40.073Z,13.60
2017-12-05T18:22:07.541Z,15.60
2017-12-05T18:24:35.024Z,13.07
2017-12-05T18:27:02.489Z,13.20
2017-12-05T18:29:29.993Z,14.03
2017-12-05T18:31:57.470Z,12.93
2017-12-05T18:34:24.957Z,14.30
2017-12-05T18:36:52.424Z,16.03
2017-12-05T18:39:19.909Z,13.20
2017-12-05T18:41:47.394Z,13.53
2017-12-05T18:44:14.877Z,17.83
2017-12-05T18:46:42.340Z,20.30
2017-12-05T18:49:09.846Z,13.73
2017-12-05T18:51:37.317Z,15.80
2017-12-05T18:54:04.901Z,15.43
2017-12-05T18:56:33.030Z,17.47
2017-12-05T18:59:00.513Z,13.90
2017-12-05T19:01:28.897Z,14.63
2017-12-05T19:03:57.921Z,15.10
2017-12-05T19:06:25.394Z,15.60
2017-12-05T19:08:52.877Z,16.20
2017-12-05T19:11:21.085Z,14.80
2017-12-05T19:13:48.569Z,15.30
2017-12-05T19:16:16.033Z,16.30
2017-12-05T19:18:43.559Z,19.97
2017-12-05T19:21:11.041Z,15.70
2017-12-05T19:23:38.501Z,16.63
2017-12-05T19:26:05.965Z,14.67
2017-12-05T19:28:33.449Z,19.33
2017-12-05T19:31:00.917Z,23.47
2017-12-05T19:33:28.380Z,19.43
2017-12-05T19:35:55.861Z,16.73
2017-12-05T19:38:23.329Z,22.73
2017-12-05T19:40:50.797Z,17.47
2017-12-05T19:43:18.279Z,18.93
2017-12-05T19:45:45.742Z,18.40
2017-12-05T19:48:13.276Z,15.20
2017-12-05T19:50:40.741Z,14.80
2017-12-05T19:53:08.221Z,16.67
2017-12-05T19:55:35.684Z,15.40
2017-12-05T19:58:03.186Z,14.33
2017-12-05T20:00:30.652Z,14.93
2017-12-05T20:02:58.950Z,15.70
2017-12-05T20:05:27.238Z,15.73
2017-12-05T20:07:54.724Z,16.63
2017-12-05T20:10:22.209Z,19.00
2017-12-05T20:12:49.689Z,16.73
2017-12-05T20:15:17.157Z,17.40
2017-12-05T20:17:45.582Z,16.23
2017-12-05T20:20:13.529Z,15.80
2017-12-05T20:22:40.998Z,18.00
2017-12-05T20:25:08.474Z,16.30
2017-12-05T20:27:35.964Z,16.87
2017-12-05T20:30:03.478Z,15.43
2017-12-05T20:32:32.720Z,18.50
2017-12-05T20:35:00.210Z,15.90
2017-12-05T20:37:27.688Z,18.13
2017-12-05T20:39:55.169Z,22.87
2017-12-05T20:42:23.408Z,16.47
2017-12-05T20:44:50.889Z,16.13
2017-12-05T20:47:18.353Z,16.70
2017-12-05T20:49:45.816Z,16.27
2017-12-05T20:52:13.351Z,16.57
2017-12-05T20:54:40.816Z,17.13
2017-12-05T20:57:08.305Z,16.70
2017-12-05T20:59:35.788Z,17.13
2017-12-05T21:02:03.261Z,17.80
2017-12-05T21:04:30.726Z,16.77
2017-12-05T21:06:58.272Z,18.70
2017-12-05T21:09:25.901Z,16.83
2017-12-05T21:11:53.368Z,19.07
2017-12-05T21:14:20.880Z,18.40
2017-12-05T21:16:48.358Z,17.87
2017-12-05T21:19:16.034Z,18.43
2017-12-05T21:21:43.533Z,18.33
2017-12-05T21:24:11.013Z,16.83
2017-12-05T21:26:38.484Z,16.97
2017-12-05T21:29:06.198Z,17.67
2017-12-05T21:31:33.762Z,17.70
2017-12-05T21:34:01.646Z,18.00
2017-12-05T21:36:29.127Z,17.27
2017-12-05T21:38:56.598Z,16.90
2017-12-05T21:41:24.125Z,18.73
2017-12-05T21:43:51.621Z,17.63
2017-12-05T21:46:19.085Z,19.17
2017-12-05T21:48:46.552Z,17.97
2017-12-05T21:51:14.039Z,17.30
2017-12-05T21:53:41.505Z,20.77
2017-12-05T21:56:08.969Z,17.23
2017-12-05T21:58:36.454Z,19.57
2017-12-05T22:01:03.920Z,18.47
2017-12-05T22:03:31.384Z,17.90
2017-12-05T22:05:58.914Z,17.83
2017-12-05T22:08:26.381Z,16.90
2017-12-05T22:10:54.050Z,18.63
2017-12-05T22:13:21.591Z,17.23
2017-12-05T22:15:49.145Z,18.43
2017-12-05T22:18:16.629Z,18.23
2017-12-05T22:20:44.883Z,18.53
2017-12-05T22:23:12.489Z,18.53
2017-12-05T22:25:39.969Z,17.63
2017-12-05T22:28:07.440Z,17.63
2017-12-05T22:30:34.938Z,16.73
2017-12-05T22:33:02.413Z,16.80
2017-12-05T22:35:29.893Z,17.77
2017-12-05T22:37:57.386Z,16.40
2017-12-05T22:40:24.855Z,17.57
2017-12-05T22:42:52.333Z,15.83
2017-12-05T22:45:19.800Z,17.53
2017-12-05T22:47:47.313Z,18.07
2017-12-05T22:50:14.812Z,17.33
2017-12-05T22:52:42.311Z,17.17
2017-12-05T22:55:09.805Z,17.00
2017-12-05T22:57:37.297Z,16.60
2017-12-05T23:00:04.767Z,18.87
2017-12-05T23:02:32.253Z,18.63
2017-12-05T23:04:59.716Z,17.40
2017-12-05T23:07:27.215Z,17.93
2017-12-05T23:09:54.680Z,16.53
2017-12-05T23:12:22.161Z,17.83
2017-12-05T23:14:49.629Z,18.03
2017-12-05T23:17:17.108Z,17.77
2017-12-05T23:19:44.581Z,17.43
2017-12-05T23:22:12.070Z,15.83
2017-12-05T23:24:39.536Z,17.37
2017-12-05T23:27:07.017Z,16.97
2017-12-05T23:29:34.482Z,15.93
2017-12-05T23:32:02.800Z,15.77
2017-12-05T23:34:30.261Z,17.50
2017-12-05T23:36:57.745Z,18.07
2017-12-05T23:39:25.220Z,17.30
2017-12-05T23:41:52.700Z,17.23
2017-12-05T23:44:20.173Z,16.17
2017-12-05T23:46:47.640Z,15.70
2017-12-05T23:49:15.124Z,15.47
2017-12-05T23:51:42.609Z,15.87
2017-12-05T23:54:10.074Z,16.17
2017-12-05T23:56:37.556Z,16.10
2017-12-05T23:59:05.025Z,16.50
